Time,TemperatureF,DewpointF,PressureIn,WindDirection,WindDirectionDegrees,WindSpeedMPH,WindSpeedGustMPH,Humidity,HourlyPrecipIn,Conditions,Clouds,dailyrainin,SoftwareType,DateUTC
2013-08-20 00:10:00,77.4,69.0,30.10,SSE,153,0.0,-999.0,74,-99.99,,,0.00,weatherlink.com 1.10,2013-08-20 04:10:00,
2013-08-20 00:25:00,77.4,69.0,30.10,SSE,153,0.0,-999.0,75,-99.99,,,0.00,weatherlink.com 1.10,2013-08-20 04:25:00,
2013-08-20 00:40:00,77.2,69.0,30.10,SSE,153,0.0,-999.0,75,-99.99,,,0.00,weatherlink.com 1.10,2013-08-20 04:40:00,
2013-08-20 00:55:00,77.2,69.0,30.10,SSE,153,0.0,-999.0,76,-99.99,,,0.00,weatherlink.com 1.10,2013-08-20 04:55:00,
2013-08-20 01:10:00,77.2,69.0,30.10,SSE,153,0.0,-999.0,76,-99.99,,,0.00,weatherlink.com 1.10,2013-08-20 05:10:00,
2013-08-20 01:25:00,77.2,70.0,30.09,SSE,153,0.0,-999.0,77,-99.99,,,0.00,weatherlink.com 1.10,2013-08-20 05:25:00,
2013-08-20 01:40:00,77.2,70.0,30.09,SSE,153,0.0,-999.0,77,-99.99,,,0.00,weatherlink.com 1.10,2013-08-20 05:40:00,
2013-08-20 01:55:00,77.0,70.0,30.09,SSE,153,0.0,-999.0,78,-99.99,,,0.00,weatherlink.com 1.10,2013-08-20 05:55:00,
2013-08-20 02:10:00,76.8,69.0,30.09,SSE,153,0.0,-999.0,78,-99.99,,,0.00,weatherlink.com 1.10,2013-08-20 06:10:00,
2013-08-20 02:25:00,76.8,70.0,30.08,SSE,153,0.0,-999.0,79,-99.99,,,0.00,weatherlink.com 1.10,2013-08-20 06:25:00,
2013-08-20 02:40:00,76.8,70.0,30.07,SSE,153,0.0,-999.0,79,-99.99,,,0.00,weatherlink.com 1.10,2013-08-20 06:40:00,
2013-08-20 02:55:00,77.0,70.0,30.07,SSE,153,0.0,-999.0,80,-99.99,,,0.00,weatherlink.com 1.10,2013-08-20 06:55:00,
2013-08-20 03:10:00,77.0,70.0,30.07,SSE,153,0.0,-999.0,80,-99.99,,,0.00,weatherlink.com 1.10,2013-08-20 07:10:00,
2013-08-20 03:25:00,77.0,70.0,30.07,SSE,153,0.0,-999.0,80,-99.99,,,0.00,weatherlink.com 1.10,2013-08-20 07:25:00,
2013-08-20 03:40:00,77.0,70.0,30.07,SSE,153,0.0,-999.0,80,-99.99,,,0.00,weatherlink.com 1.10,2013-08-20 07:40:00,
2013-08-20 03:55:00,77.2,71.0,30.06,SSE,153,0.0,-999.0,81,-99.99,,,0.01,weatherlink.com 1.10,2013-08-20 07:55:00,
2013-08-20 04:10:00,77.7,71.0,30.06,SSE,153,0.0,-999.0,81,-99.99,,,0.17,weatherlink.com 1.10,2013-08-20 08:10:00,
2013-08-20 04:25:00,78.3,72.0,30.06,ESE,108,0.0,-999.0,82,-99.99,,,0.17,weatherlink.com 1.10,2013-08-20 08:25:00,
2013-08-20 04:40:00,78.3,72.0,30.06,ESE,108,0.0,-999.0,82,-99.99,,,0.17,weatherlink.com 1.10,2013-08-20 08:40:00,
2013-08-20 04:55:00,77.9,72.0,30.06,ESE,108,0.0,-999.0,82,-99.99,,,0.17,weatherlink.com 1.10,2013-08-20 08:55:00,
2013-08-20 05:10:00,78.3,73.0,30.06,ESE,108,0.0,-999.0,83,-99.99,,,0.17,weatherlink.com 1.10,2013-08-20 09:10:00,
2013-08-20 05:25:00,78.1,72.0,30.07,ESE,108,0.0,-999.0,82,-99.99,,,0.17,weatherlink.com 1.10,2013-08-20 09:25:00,
2013-08-20 05:40:00,77.9,72.0,30.07,ESE,108,0.0,-999.0,82,-99.99,,,0.17,weatherlink.com 1.10,2013-08-20 09:40:00,
2013-08-20 05:55:00,77.9,72.0,30.07,ESE,108,0.0,-999.0,83,-99.99,,,0.17,weatherlink.com 1.10,2013-08-20 09:55:00,
2013-08-20 06:10:00,77.7,72.0,30.08,ESE,108,0.0,-999.0,83,-99.99,,,0.17,weatherlink.com 1.10,2013-08-20 10:10:00,
2013-08-20 06:25:00,77.7,72.0,30.08,ESE,108,0.0,-999.0,83,-99.99,,,0.17,weatherlink.com 1.10,2013-08-20 10:25:00,
2013-08-20 06:40:00,77.6,72.0,30.08,ESE,108,1.0,-999.0,83,-99.99,,,0.17,weatherlink.com 1.10,2013-08-20 10:40:00,
2013-08-20 06:55:00,77.7,72.0,30.09,ESE,112,0.0,-999.0,83,-99.99,,,0.32,weatherlink.com 1.10,2013-08-20 10:55:00,
2013-08-20 07:10:00,77.6,72.0,30.09,ESE,112,0.0,-999.0,83,-99.99,,,0.38,weatherlink.com 1.10,2013-08-20 11:10:00,
2013-08-20 07:25:00,77.2,72.0,30.09,ESE,112,0.0,-999.0,83,-99.99,,,0.38,weatherlink.com 1.10,2013-08-20 11:25:00,
2013-08-20 07:40:00,76.7,71.0,30.10,ESE,112,0.0,-999.0,83,-99.99,,,0.38,weatherlink.com 1.10,2013-08-20 11:40:00,
2013-08-20 07:55:00,76.1,71.0,30.10,ESE,112,0.0,-999.0,83,-99.99,,,0.38,weatherlink.com 1.10,2013-08-20 11:55:00,
2013-08-20 08:10:00,76.0,71.0,30.11,ESE,112,0.0,-999.0,84,-99.99,,,0.38,weatherlink.com 1.10,2013-08-20 12:10:00,
2013-08-20 08:25:00,76.0,71.0,30.11,ESE,112,0.0,-999.0,84,-99.99,,,0.38,weatherlink.com 1.10,2013-08-20 12:25:00,
2013-08-20 08:40:00,76.1,71.0,30.11,ESE,112,0.0,-999.0,84,-99.99,,,0.38,weatherlink.com 1.10,2013-08-20 12:40:00,
2013-08-20 08:55:00,76.8,72.0,30.11,ESE,112,0.0,-999.0,85,-99.99,,,0.38,weatherlink.com 1.10,2013-08-20 12:55:00,
2013-08-20 09:10:00,77.9,73.0,30.11,ESE,112,0.0,-999.0,85,-99.99,,,0.38,weatherlink.com 1.10,2013-08-20 13:10:00,
2013-08-20 09:25:00,79.0,74.0,30.12,ESE,112,0.0,-999.0,85,-99.99,,,0.38,weatherlink.com 1.10,2013-08-20 13:25:00,
2013-08-20 09:40:00,79.4,75.0,30.12,ESE,112,0.0,-999.0,85,-99.99,,,0.38,weatherlink.com 1.10,2013-08-20 13:40:00,
2013-08-20 09:55:00,79.9,75.0,30.12,ESE,112,0.0,-999.0,84,-99.99,,,0.38,weatherlink.com 1.10,2013-08-20 13:55:00,
2013-08-20 10:10:00,80.3,75.0,30.14,ESE,112,0.0,-999.0,84,-99.99,,,0.38,weatherlink.com 1.10,2013-08-20 14:10:00,
2013-08-20 10:25:00,80.7,76.0,30.14,ESE,112,0.0,-999.0,84,-99.99,,,0.38,weatherlink.com 1.10,2013-08-20 14:25:00,
2013-08-20 10:40:00,81.2,75.0,30.15,ESE,112,0.0,-999.0,82,-99.99,,,0.38,weatherlink.com 1.10,2013-08-20 14:40:00,
2013-08-20 10:55:00,82.0,75.0,30.15,ESE,114,0.0,-999.0,80,-99.99,,,0.38,weatherlink.com 1.10,2013-08-20 14:55:00,
2013-08-20 11:11:00,82.8,75.0,30.15,ESE,113,0.0,-999.0,78,-99.99,,,0.38,weatherlink.com 1.10,2013-08-20 15:11:00,
2013-08-20 11:26:00,83.6,75.0,30.15,ESE,113,0.0,-999.0,74,-99.99,,,0.38,weatherlink.com 1.10,2013-08-20 15:26:00,
2013-08-20 11:41:00,84.9,75.0,30.15,ESE,118,0.0,-999.0,71,-99.99,,,0.38,weatherlink.com 1.10,2013-08-20 15:41:00,
2013-08-20 11:56:00,85.7,74.0,30.15,WSW,251,0.0,-999.0,68,-99.99,,,0.39,weatherlink.com 1.10,2013-08-20 15:56:00,
2013-08-20 12:11:00,86.3,74.0,30.15,SW,232,0.0,-999.0,67,-99.99,,,0.39,weatherlink.com 1.10,2013-08-20 16:11:00,
2013-08-20 12:26:00,87.4,74.0,30.16,East,85,0.0,-999.0,65,-99.99,,,0.39,weatherlink.com 1.10,2013-08-20 16:26:00,
2013-08-20 12:41:00,88.0,74.0,30.16,East,81,0.0,-999.0,63,-99.99,,,0.39,weatherlink.com 1.10,2013-08-20 16:41:00,
2013-08-20 12:56:00,88.6,73.0,30.16,SSW,206,0.0,-999.0,61,-99.99,,,0.39,weatherlink.com 1.10,2013-08-20 16:56:00,
2013-08-20 13:11:00,89.0,72.0,30.15,SSE,162,0.0,-999.0,58,-99.99,,,0.39,weatherlink.com 1.10,2013-08-20 17:11:00,
2013-08-20 13:26:00,89.5,72.0,30.15,ENE,72,1.0,-999.0,57,-99.99,,,0.39,weatherlink.com 1.10,2013-08-20 17:26:00,
2013-08-20 13:41:00,90.3,73.0,30.15,North,357,0.0,-999.0,57,-99.99,,,0.39,weatherlink.com 1.10,2013-08-20 17:41:00,
2013-08-20 13:56:00,90.3,74.0,30.15,South,187,0.0,-999.0,58,-99.99,,,0.39,weatherlink.com 1.10,2013-08-20 17:56:00,
2013-08-20 14:11:00,91.0,74.0,30.15,NNE,24,0.0,-999.0,57,-99.99,,,0.39,weatherlink.com 1.10,2013-08-20 18:11:00,
2013-08-20 14:26:00,91.4,73.0,30.14,ENE,70,1.0,-999.0,55,-99.99,,,0.39,weatherlink.com 1.10,2013-08-20 18:26:00,
2013-08-20 14:41:00,91.4,73.0,30.13,NW,314,0.0,-999.0,55,-99.99,,,0.39,weatherlink.com 1.10,2013-08-20 18:41:00,
2013-08-20 14:56:00,92.1,73.0,30.13,North,2,0.0,-999.0,53,-99.99,,,0.39,weatherlink.com 1.10,2013-08-20 18:56:00,
2013-08-20 15:11:00,92.3,73.0,30.14,SSE,163,1.0,-999.0,53,-99.99,,,0.39,weatherlink.com 1.10,2013-08-20 19:11:00,
2013-08-20 15:26:00,92.5,72.0,30.13,East,101,0.0,-999.0,52,-99.99,,,0.39,weatherlink.com 1.10,2013-08-20 19:26:00,
2013-08-20 15:41:00,92.1,72.0,30.12,ENE,78,0.0,-999.0,52,-99.99,,,0.39,weatherlink.com 1.10,2013-08-20 19:41:00,
2013-08-20 15:56:00,92.5,72.0,30.12,WNW,291,0.0,-999.0,52,-99.99,,,0.39,weatherlink.com 1.10,2013-08-20 19:56:00,
2013-08-20 16:11:00,92.1,72.0,30.11,NNW,335,0.0,-999.0,52,-99.99,,,0.39,weatherlink.com 1.10,2013-08-20 20:11:00,
2013-08-20 16:26:00,92.1,72.0,30.11,NE,45,0.0,-999.0,52,-99.99,,,0.39,weatherlink.com 1.10,2013-08-20 20:26:00,
2013-08-20 16:41:00,91.6,72.0,30.10,East,90,2.0,-999.0,53,-99.99,,,0.39,weatherlink.com 1.10,2013-08-20 20:41:00,
2013-08-20 16:56:00,90.3,71.0,30.11,ENE,70,0.0,-999.0,54,-99.99,,,0.39,weatherlink.com 1.10,2013-08-20 20:56:00,
2013-08-20 17:11:00,89.7,72.0,30.11,East,92,3.0,-999.0,56,-99.99,,,0.39,weatherlink.com 1.10,2013-08-20 21:11:00,
2013-08-20 17:26:00,89.0,72.0,30.11,ESE,103,0.0,-999.0,57,-99.99,,,0.39,weatherlink.com 1.10,2013-08-20 21:26:00,
2013-08-20 17:41:00,88.4,72.0,30.11,SW,232,0.0,-999.0,59,-99.99,,,0.39,weatherlink.com 1.10,2013-08-20 21:41:00,
2013-08-20 17:56:00,88.4,72.0,30.11,West,259,0.0,-999.0,58,-99.99,,,0.39,weatherlink.com 1.10,2013-08-20 21:56:00,
2013-08-20 18:11:00,88.0,72.0,30.11,SSE,155,0.0,-999.0,60,-99.99,,,0.39,weatherlink.com 1.10,2013-08-20 22:11:00,
2013-08-20 18:26:00,87.4,72.0,30.12,SSE,166,0.0,-999.0,60,-99.99,,,0.39,weatherlink.com 1.10,2013-08-20 22:26:00,
2013-08-20 18:41:00,87.0,71.0,30.12,SSE,167,0.0,-999.0,60,-99.99,,,0.39,weatherlink.com 1.10,2013-08-20 22:41:00,
2013-08-20 18:56:00,86.7,71.0,30.12,SSE,167,0.0,-999.0,60,-99.99,,,0.39,weatherlink.com 1.10,2013-08-20 22:56:00,
2013-08-20 19:11:00,86.7,72.0,30.13,SSE,167,0.0,-999.0,61,-99.99,,,0.39,weatherlink.com 1.10,2013-08-20 23:11:00,
2013-08-20 19:26:00,86.7,72.0,30.13,SSE,167,0.0,-999.0,61,-99.99,,,0.39,weatherlink.com 1.10,2013-08-20 23:26:00,
2013-08-20 19:41:00,86.3,72.0,30.14,SSE,167,0.0,-999.0,62,-99.99,,,0.39,weatherlink.com 1.10,2013-08-20 23:41:00,
2013-08-20 19:56:00,85.1,71.0,30.13,NE,36,0.0,-999.0,63,-99.99,,,0.59,weatherlink.com 1.10,2013-08-20 23:56:00,
2013-08-20 20:11:00,80.9,68.0,30.13,NE,36,0.0,-999.0,66,-99.99,,,0.63,weatherlink.com 1.10,2013-08-21 00:11:00,
2013-08-20 20:26:00,79.6,69.0,30.13,NE,36,0.0,-999.0,70,-99.99,,,0.63,weatherlink.com 1.10,2013-08-21 00:26:00,
2013-08-20 20:41:00,79.2,69.0,30.14,NE,36,0.0,-999.0,72,-99.99,,,0.63,weatherlink.com 1.10,2013-08-21 00:41:00,
2013-08-20 20:56:00,79.4,70.0,30.14,NE,36,0.0,-999.0,73,-99.99,,,0.63,weatherlink.com 1.10,2013-08-21 00:56:00,
2013-08-20 21:11:00,79.0,70.0,30.14,NE,36,0.0,-999.0,74,-99.99,,,0.63,weatherlink.com 1.10,2013-08-21 01:11:00,
2013-08-20 21:26:00,79.0,70.0,30.15,NE,36,0.0,-999.0,75,-99.99,,,0.63,weatherlink.com 1.10,2013-08-21 01:26:00,
2013-08-20 21:41:00,79.0,71.0,30.15,NE,36,0.0,-999.0,76,-99.99,,,0.63,weatherlink.com 1.10,2013-08-21 01:41:00,
2013-08-20 21:56:00,78.8,71.0,30.15,NE,36,0.0,-999.0,77,-99.99,,,0.63,weatherlink.com 1.10,2013-08-21 01:56:00,
2013-08-20 22:11:00,78.8,71.0,30.15,NE,36,0.0,-999.0,77,-99.99,,,0.63,weatherlink.com 1.10,2013-08-21 02:11:00,
2013-08-20 22:26:00,78.6,71.0,30.16,NE,36,0.0,-999.0,78,-99.99,,,0.63,weatherlink.com 1.10,2013-08-21 02:26:00,
2013-08-20 22:41:00,78.8,71.0,30.17,NE,36,0.0,-999.0,78,-99.99,,,0.63,weatherlink.com 1.10,2013-08-21 02:41:00,
2013-08-20 22:56:00,78.8,72.0,30.17,NE,36,0.0,-999.0,79,-99.99,,,0.63,weatherlink.com 1.10,2013-08-21 02:56:00,
2013-08-20 23:11:00,78.8,72.0,30.17,NE,36,0.0,-999.0,80,-99.99,,,0.63,weatherlink.com 1.10,2013-08-21 03:11:00,
2013-08-20 23:26:00,79.0,72.0,30.17,NE,36,0.0,-999.0,80,-99.99,,,0.63,weatherlink.com 1.10,2013-08-21 03:26:00,
2013-08-20 23:41:00,78.8,72.0,30.17,NE,36,0.0,-999.0,80,-99.99,,,0.63,weatherlink.com 1.10,2013-08-21 03:41:00,
2013-08-20 23:56:00,78.6,72.0,30.17,NE,36,0.0,-999.0,81,-99.99,,,0.63,weatherlink.com 1.10,2013-08-21 03:56:00,